createdAt,value
2022-09-13T00:01:18.983Z,99948.19
2022-09-13T00:03:45.838Z,99946.22
2022-09-13T00:06:17.231Z,99941.66
2022-09-13T00:08:44.717Z,99949.72
2022-09-13T00:11:19.668Z,99943.91
2022-09-13T00:13:46.876Z,99945.91
2022-09-13T00:16:14.777Z,99944.34
2022-09-13T00:18:41.899Z,99945.59
2022-09-13T00:21:14.090Z,99936.97
2022-09-13T00:23:43.544Z,99933.56
2022-09-13T00:26:12.065Z,99939.25
2022-09-13T00:28:38.963Z,99934.22
2022-09-13T00:31:06.723Z,99940.91
2022-09-13T00:33:34.325Z,99937.13
2022-09-13T00:36:05.458Z,99934.38
2022-09-13T00:38:32.576Z,99936.63
2022-09-13T00:40:59.632Z,99934.47
2022-09-13T00:43:43.609Z,99935.44
2022-09-13T00:46:13.526Z,99928.09
2022-09-13T00:48:40.611Z,99931.91
2022-09-13T00:51:09.427Z,99926.91
2022-09-13T00:53:39.450Z,99918.88
2022-09-13T00:56:09.796Z,99920.69
2022-09-13T00:58:39.368Z,99922.50
2022-09-13T01:01:08.563Z,99919.53
2022-09-13T01:03:35.649Z,99916.56
2022-09-13T01:06:14.648Z,99907.50
2022-09-13T01:08:43.382Z,99910.72
2022-09-13T01:11:13.420Z,99911.94
2022-09-13T01:13:41.343Z,99907.59
2022-09-13T01:16:08.403Z,99908.03
2022-09-13T01:18:35.536Z,99910.84
2022-09-13T01:21:02.294Z,99902.44
2022-09-13T01:23:35.243Z,99910.13
2022-09-13T01:26:20.682Z,99901.72
2022-09-13T01:29:14.247Z,99901.38
2022-09-13T01:31:51.524Z,99899.34
2022-09-13T01:34:38.604Z,99901.38
2022-09-13T01:37:24.790Z,99899.19
2022-09-13T01:39:55.628Z,99899.03
2022-09-13T01:42:22.771Z,99889.63
2022-09-13T01:44:57.624Z,99889.06
2022-09-13T01:47:31.255Z,99884.41
2022-09-13T01:50:10.026Z,99878.19
2022-09-13T01:52:56.870Z,99878.00
2022-09-13T01:55:32.409Z,99881.41
2022-09-13T01:58:18.204Z,99876.19
2022-09-13T02:00:48.454Z,99880.16
2022-09-13T02:03:22.542Z,99873.38
2022-09-13T02:05:55.354Z,99870.38
2022-09-13T02:08:32.674Z,99873.19
2022-09-13T02:11:05.328Z,99861.06
2022-09-13T02:13:35.315Z,99869.25
2022-09-13T02:16:07.483Z,99865.03
2022-09-13T02:18:40.029Z,99862.66
2022-09-13T02:21:17.792Z,99862.66
2022-09-13T02:23:48.804Z,99862.88
2022-09-13T02:26:15.924Z,99860.25
2022-09-13T02:28:48.238Z,99855.47
2022-09-13T02:31:17.333Z,99855.09
2022-09-13T02:33:56.712Z,99844.53
2022-09-13T02:36:25.954Z,99858.38
2022-09-13T02:38:56.051Z,99846.59
2022-09-13T02:41:39.240Z,99844.41
2022-09-13T02:44:15.161Z,99839.63
2022-09-13T02:46:59.129Z,99842.47
2022-09-13T02:49:26.506Z,99839.25
2022-09-13T02:51:56.577Z,99838.91
2022-09-13T02:54:46.605Z,99841.72
2022-09-13T02:57:18.488Z,99828.72
2022-09-13T02:59:46.342Z,99827.09
2022-09-13T03:02:14.555Z,99831.31
2022-09-13T03:04:41.686Z,99828.91
2022-09-13T03:07:12.712Z,99835.34
2022-09-13T03:09:46.000Z,99832.16
2022-09-13T03:12:24.220Z,99836.56
2022-09-13T03:14:58.186Z,99826.56
2022-09-13T03:17:48.419Z,99823.19
2022-09-13T03:20:15.228Z,99816.97
2022-09-13T03:22:48.141Z,99827.38
2022-09-13T03:25:24.130Z,99820.81
2022-09-13T03:28:04.139Z,99819.44
2022-09-13T03:30:33.567Z,99812.59
2022-09-13T03:33:04.595Z,99810.63
2022-09-13T03:35:34.451Z,99806.41
2022-09-13T03:38:05.438Z,99812.59
2022-09-13T03:40:42.521Z,99809.41
2022-09-13T03:43:10.098Z,99802.66
2022-09-13T03:45:40.015Z,99806.47
2022-09-13T03:48:07.398Z,99801.47
2022-09-13T03:50:35.213Z,99806.69
2022-09-13T03:53:06.856Z,99807.69
2022-09-13T03:55:35.620Z,99814.94
2022-09-13T03:58:02.379Z,99809.78
2022-09-13T04:02:34.520Z,99805.16
2022-09-13T04:05:01.921Z,99806.78
2022-09-13T04:07:30.459Z,99798.19
2022-09-13T04:09:57.346Z,99802.56
2022-09-13T04:12:24.381Z,99803.19
2022-09-13T04:14:52.543Z,99807.19
2022-09-13T04:17:19.260Z,99807.19
2022-09-13T04:19:47.169Z,99809.19
2022-09-13T04:22:14.365Z,99807.78
2022-09-13T04:24:41.161Z,99813.59
2022-09-13T04:27:08.244Z,99820.97
2022-09-13T04:29:35.060Z,99820.38
2022-09-13T04:32:01.927Z,99826.19
2022-09-13T04:34:29.174Z,99831.94
2022-09-13T04:36:55.964Z,99836.13
2022-09-13T04:39:23.837Z,99838.94
2022-09-13T04:41:52.062Z,99831.13
2022-09-13T04:44:18.884Z,99843.56
2022-09-13T04:46:49.090Z,99847.09
2022-09-13T04:49:17.024Z,99843.03
2022-09-13T04:51:43.846Z,99840.03
2022-09-13T04:54:15.265Z,99843.03
2022-09-13T04:56:46.450Z,99838.28
2022-09-13T04:59:13.277Z,99838.28
2022-09-13T05:01:40.455Z,99839.81
2022-09-13T05:04:08.155Z,99837.34
2022-09-13T05:06:35.331Z,99838.53
2022-09-13T05:09:02.624Z,99840.84
2022-09-13T05:11:32.423Z,99842.38
2022-09-13T05:14:00.519Z,99845.50
2022-09-13T05:16:28.736Z,99833.06
2022-09-13T05:18:56.222Z,99837.59
2022-09-13T05:21:24.752Z,99844.41
2022-09-13T05:23:52.439Z,99858.94
2022-09-13T05:27:34.810Z,99847.41
2022-09-13T05:30:01.887Z,99846.22
2022-09-13T05:32:31.293Z,99856.19
2022-09-13T05:34:58.084Z,99859.41
2022-09-13T05:37:25.198Z,99865.19
2022-09-13T05:40:10.807Z,99862.56
2022-09-13T05:42:38.935Z,99855.91
2022-09-13T05:45:06.943Z,99846.69
2022-09-13T05:47:33.741Z,99848.44
2022-09-13T05:50:10.237Z,99851.56
2022-09-13T05:52:38.022Z,99856.72
2022-09-13T05:55:05.324Z,99859.88
2022-09-13T05:57:36.365Z,99860.81
2022-09-13T06:00:06.748Z,99860.91
2022-09-13T06:02:39.961Z,99856.25
2022-09-13T06:05:07.337Z,99861.16
2022-09-13T06:07:34.162Z,99857.88
2022-09-13T06:10:01.329Z,99853.41
2022-09-13T06:12:30.194Z,99859.34
2022-09-13T06:14:56.977Z,99850.69
2022-09-13T06:17:24.083Z,99858.25
2022-09-13T06:19:51.181Z,99862.19
2022-09-13T06:22:18.004Z,99863.34
2022-09-13T06:24:45.128Z,99865.41
2022-09-13T06:27:12.399Z,99868.53
2022-09-13T06:29:39.368Z,99865.41
2022-09-13T06:32:06.814Z,99854.94
2022-09-13T06:34:33.983Z,99866.50
2022-09-13T06:37:00.763Z,99871.78
2022-09-13T06:39:28.025Z,99869.94
2022-09-13T06:41:54.894Z,99865.44
2022-09-13T06:44:34.301Z,99871.41
2022-09-13T06:47:01.101Z,99877.47
2022-09-13T06:49:29.306Z,99867.75
2022-09-13T06:51:56.601Z,99874.25
2022-09-13T06:54:25.106Z,99875.09
2022-09-13T06:56:53.869Z,99864.03
2022-09-13T06:59:21.084Z,99861.56
2022-09-13T07:01:47.997Z,99868.97
2022-09-13T07:04:16.903Z,99859.59
2022-09-13T07:06:45.409Z,99847.53
2022-09-13T07:09:13.207Z,99846.34
2022-09-13T07:11:41.068Z,99850.13
2022-09-13T07:14:08.231Z,99856.63
2022-09-13T07:16:37.100Z,99855.47
2022-09-13T07:19:05.819Z,99853.72
2022-09-13T07:21:33.386Z,99868.19
2022-09-13T07:24:00.569Z,99870.34
2022-09-13T07:26:27.783Z,99867.00
2022-09-13T07:28:56.254Z,99866.25
2022-09-13T07:31:24.439Z,99855.41
2022-09-13T07:33:55.668Z,99866.53
2022-09-13T07:36:23.255Z,99853.88
2022-09-13T07:38:50.303Z,99860.22
2022-09-13T07:41:18.355Z,99864.66
2022-09-13T07:44:10.993Z,99868.66
2022-09-13T07:46:41.493Z,99848.63
2022-09-13T07:49:09.419Z,99854.16
2022-09-13T07:51:37.400Z,99850.72
2022-09-13T07:54:07.040Z,99852.47
2022-09-13T07:56:34.934Z,99859.47
2022-09-13T07:59:04.067Z,99857.78
2022-09-13T08:01:34.656Z,99854.50
2022-09-13T08:04:03.512Z,99858.25
2022-09-13T08:06:30.987Z,99860.81
2022-09-13T08:08:58.161Z,99860.81
2022-09-13T08:11:29.167Z,99867.84
2022-09-13T08:13:55.989Z,99863.94
2022-09-13T08:16:23.478Z,99867.56
2022-09-13T08:18:51.780Z,99864.16
2022-09-13T08:21:19.020Z,99871.66
2022-09-13T08:23:45.925Z,99874.72
2022-09-13T08:26:13.925Z,99879.63
2022-09-13T08:28:41.651Z,99868.59
2022-09-13T08:31:17.884Z,99867.66
2022-09-13T08:33:46.738Z,99864.28
2022-09-13T08:36:14.679Z,99865.72
2022-09-13T08:38:48.320Z,99851.19
2022-09-13T08:41:24.239Z,99856.94
2022-09-13T08:43:56.648Z,99852.00
2022-09-13T08:46:28.884Z,99858.16
2022-09-13T08:48:58.383Z,99856.63
2022-09-13T08:51:35.604Z,99858.56
2022-09-13T08:54:03.229Z,99859.16
2022-09-13T08:56:49.680Z,99859.81
2022-09-13T08:59:16.483Z,99864.72
2022-09-13T09:01:47.107Z,99855.31
2022-09-13T09:04:20.261Z,99857.44
2022-09-13T09:06:47.346Z,99855.47
2022-09-13T09:09:16.932Z,99856.66
2022-09-13T09:11:50.558Z,99854.53
2022-09-13T09:14:17.664Z,99858.00
2022-09-13T09:16:48.805Z,99856.53
2022-09-13T09:19:15.564Z,99849.19
2022-09-13T09:21:45.131Z,99845.94
2022-09-13T09:24:16.601Z,99834.28
2022-09-13T09:26:44.039Z,99835.41
2022-09-13T09:29:18.191Z,99829.59
2022-09-13T09:32:09.430Z,99821.88
2022-09-13T09:34:42.755Z,99821.13
2022-09-13T09:37:22.883Z,99820.78
2022-09-13T09:39:51.066Z,99823.59
2022-09-13T09:42:21.425Z,99824.28
2022-09-13T09:44:50.240Z,99824.19
2022-09-13T09:47:25.975Z,99820.06
2022-09-13T09:50:10.427Z,99816.47
2022-09-13T09:52:38.213Z,99812.28
2022-09-13T09:55:12.276Z,99804.75
2022-09-13T09:57:50.106Z,99807.25
2022-09-13T10:00:17.844Z,99812.81
2022-09-13T10:02:44.899Z,99808.94
2022-09-13T10:05:14.727Z,99808.19
2022-09-13T10:07:41.972Z,99808.09
2022-09-13T10:10:20.522Z,99802.25
2022-09-13T10:12:50.627Z,99796.16
2022-09-13T10:15:20.707Z,99791.84
2022-09-13T10:18:04.848Z,99779.19
2022-09-13T10:20:35.194Z,99788.31
2022-09-13T10:23:11.270Z,99771.56
2022-09-13T10:25:38.679Z,99767.31
2022-09-13T10:28:07.179Z,99772.81
2022-09-13T10:30:39.008Z,99764.16
2022-09-13T10:33:07.264Z,99760.88
2022-09-13T10:35:34.266Z,99757.44
2022-09-13T10:38:01.116Z,99760.84
2022-09-13T10:40:28.559Z,99761.31
2022-09-13T10:42:57.415Z,99760.78
2022-09-13T10:45:25.543Z,99759.59
2022-09-13T10:48:03.666Z,99765.41
2022-09-13T10:50:31.545Z,99770.69
2022-09-13T10:52:59.528Z,99765.72
2022-09-13T10:55:31.328Z,99774.50
2022-09-13T10:58:01.381Z,99769.97
2022-09-13T11:00:48.588Z,99765.94
2022-09-13T11:03:45.431Z,99777.06
2022-09-13T11:06:12.328Z,99770.22
2022-09-13T11:08:56.308Z,99760.50
2022-09-13T11:11:27.314Z,99757.31
2022-09-13T11:13:54.426Z,99757.97
2022-09-13T11:16:30.345Z,99750.47
2022-09-13T11:19:06.609Z,99742.22
2022-09-13T11:21:36.454Z,99746.53
2022-09-13T11:24:06.559Z,99749.81
2022-09-13T11:26:52.243Z,99729.97
2022-09-13T11:29:25.601Z,99747.81
2022-09-13T11:32:01.419Z,99733.22
2022-09-13T11:34:40.930Z,99738.66
2022-09-13T11:37:07.884Z,99733.53
2022-09-13T11:39:39.102Z,99731.41
2022-09-13T11:42:06.795Z,99731.22
2022-09-13T11:44:39.588Z,99727.91
2022-09-13T11:47:09.734Z,99715.31
2022-09-13T11:49:55.524Z,99716.59
2022-09-13T11:52:31.721Z,99716.13
2022-09-13T11:55:10.764Z,99703.78
2022-09-13T11:57:44.068Z,99713.25
2022-09-13T12:00:20.036Z,99716.72
2022-09-13T12:03:06.010Z,99708.19
2022-09-13T12:05:34.781Z,99712.88
2022-09-13T12:08:05.990Z,99715.19
2022-09-13T12:10:51.437Z,99696.19
2022-09-13T12:13:22.016Z,99707.88
2022-09-13T12:15:51.422Z,99694.72
2022-09-13T12:18:27.483Z,99686.88
2022-09-13T12:20:55.861Z,99681.03
2022-09-13T12:23:30.033Z,99676.91
2022-09-13T12:26:05.001Z,99681.94
2022-09-13T12:28:32.199Z,99682.19
2022-09-13T12:31:13.184Z,99662.47
2022-09-13T12:33:41.394Z,99659.91
2022-09-13T12:36:25.575Z,99659.13
2022-09-13T12:38:56.056Z,99650.66
2022-09-13T12:41:36.478Z,99646.09
2022-09-13T12:44:24.073Z,99640.84
2022-09-13T12:46:56.696Z,99645.53
2022-09-13T12:49:38.925Z,99651.03
2022-09-13T12:52:28.222Z,99641.81
2022-09-13T12:55:35.619Z,99639.72
2022-09-13T12:58:20.770Z,99627.78
2022-09-13T13:01:08.121Z,99627.22
2022-09-13T13:03:37.121Z,99624.13
2022-09-13T13:06:09.114Z,99619.84
2022-09-13T13:08:35.952Z,99621.06
2022-09-13T13:11:08.058Z,99621.84
2022-09-13T13:13:35.149Z,99627.63
2022-09-13T13:16:07.301Z,99623.84
2022-09-13T13:18:37.147Z,99615.38
2022-09-13T13:21:05.898Z,99610.00
2022-09-13T13:23:35.279Z,99604.22
2022-09-13T13:26:11.788Z,99607.84
2022-09-13T13:28:48.060Z,99608.88
2022-09-13T13:31:24.546Z,99605.72
2022-09-13T13:33:56.281Z,99609.44
2022-09-13T13:36:23.331Z,99600.44
2022-09-13T13:38:53.895Z,99605.19
2022-09-13T13:41:33.570Z,99600.09
2022-09-13T13:44:00.904Z,99601.38
2022-09-13T13:46:29.391Z,99593.19
2022-09-13T13:48:56.294Z,99593.44
2022-09-13T13:51:27.438Z,99590.56
2022-09-13T13:53:59.859Z,99589.91
2022-09-13T13:56:26.616Z,99591.59
2022-09-13T13:59:03.169Z,99584.44
2022-09-13T14:01:33.132Z,99573.03
2022-09-13T14:04:17.773Z,99570.78
2022-09-13T14:06:49.982Z,99561.81
2022-09-13T14:09:37.041Z,99563.09
2022-09-13T14:12:08.075Z,99562.50
2022-09-13T14:14:34.883Z,99555.31
2022-09-13T14:17:16.815Z,99557.22
2022-09-13T14:19:49.094Z,99545.22
2022-09-13T14:22:15.908Z,99541.63
2022-09-13T14:24:43.975Z,99540.97
2022-09-13T14:27:16.077Z,99546.44
2022-09-13T14:29:52.096Z,99541.72
2022-09-13T14:32:24.216Z,99534.44
2022-09-13T14:34:55.984Z,99528.16
2022-09-13T14:37:28.631Z,99526.66
2022-09-13T14:39:56.823Z,99537.63
2022-09-13T14:42:24.220Z,99535.66
2022-09-13T14:44:51.208Z,99537.97
2022-09-13T14:47:25.302Z,99533.63
2022-09-13T14:49:57.657Z,99536.66
2022-09-13T14:52:29.061Z,99527.25
2022-09-13T14:54:57.612Z,99530.03
2022-09-13T14:57:30.725Z,99529.47
2022-09-13T15:00:02.900Z,99535.72
2022-09-13T15:02:35.602Z,99536.94
2022-09-13T15:05:05.119Z,99526.75
2022-09-13T15:07:33.817Z,99522.34
2022-09-13T15:10:09.701Z,99530.06
2022-09-13T15:12:48.743Z,99524.28
2022-09-13T15:15:21.629Z,99510.69
2022-09-13T15:17:56.254Z,99511.09
2022-09-13T15:20:23.725Z,99505.59
2022-09-13T15:22:51.500Z,99512.84
2022-09-13T15:25:26.577Z,99507.13
2022-09-13T15:27:55.367Z,99509.72
2022-09-13T15:30:29.332Z,99506.84
2022-09-13T15:33:08.946Z,99492.47
2022-09-13T15:35:39.996Z,99503.06
2022-09-13T15:38:26.333Z,99496.38
2022-09-13T15:41:11.167Z,99496.75
2022-09-13T15:43:38.766Z,99491.41
2022-09-13T15:46:06.052Z,99497.09
2022-09-13T15:48:34.209Z,99502.28
2022-09-13T15:51:19.516Z,99492.66
2022-09-13T15:54:15.937Z,99496.59
2022-09-13T15:56:44.408Z,99493.66
2022-09-13T15:59:15.343Z,99495.22
2022-09-13T16:01:43.303Z,99489.94
2022-09-13T16:04:11.375Z,99495.03
2022-09-13T16:06:38.208Z,99485.31
2022-09-13T16:09:16.083Z,99485.44
2022-09-13T16:11:43.202Z,99480.69
2022-09-13T16:14:09.967Z,99476.63
2022-09-13T16:16:36.914Z,99485.72
2022-09-13T16:19:13.467Z,99466.84
2022-09-13T16:21:40.339Z,99485.88
2022-09-13T16:24:07.575Z,99478.53
2022-09-13T16:26:34.471Z,99483.66
2022-09-13T16:29:01.440Z,99478.13
2022-09-13T16:31:28.598Z,99484.03
2022-09-13T16:33:55.711Z,99481.47
2022-09-13T16:36:22.884Z,99487.31
2022-09-13T16:38:50.013Z,99486.06
2022-09-13T16:41:16.746Z,99486.94
2022-09-13T16:43:43.545Z,99486.41
2022-09-13T16:46:11.525Z,99477.50
2022-09-13T16:48:38.305Z,99474.38
2022-09-13T16:51:08.988Z,99476.00
2022-09-13T16:53:37.551Z,99486.09
2022-09-13T16:56:06.921Z,99477.47
2022-09-13T16:58:37.831Z,99471.97
2022-09-13T17:01:05.855Z,99475.69
2022-09-13T17:03:32.745Z,99477.84
2022-09-13T17:06:00.329Z,99476.56
2022-09-13T17:08:27.677Z,99487.63
2022-09-13T17:10:55.057Z,99474.22
2022-09-13T17:13:21.927Z,99488.00
2022-09-13T17:15:49.066Z,99479.09
2022-09-13T17:18:15.918Z,99483.06
2022-09-13T17:20:43.394Z,99481.31
2022-09-13T17:23:11.029Z,99484.50
2022-09-13T17:25:40.764Z,99476.69
2022-09-13T17:28:07.598Z,99477.53
2022-09-13T17:30:34.737Z,99477.31
2022-09-13T17:33:02.794Z,99465.19
2022-09-13T17:35:30.157Z,99468.09
2022-09-13T17:37:57.893Z,99472.59
2022-09-13T17:40:24.783Z,99468.66
2022-09-13T17:42:51.613Z,99473.94
2022-09-13T17:45:18.810Z,99473.16
2022-09-13T17:47:45.613Z,99472.69
2022-09-13T17:50:12.711Z,99480.59
2022-09-13T17:52:39.898Z,99479.03
2022-09-13T17:55:07.318Z,99473.22
2022-09-13T17:57:34.670Z,99469.06
2022-09-13T18:00:02.474Z,99464.84
2022-09-13T18:02:31.343Z,99472.75
2022-09-13T18:04:59.611Z,99464.31
2022-09-13T18:07:30.436Z,99460.63
2022-09-13T18:09:57.526Z,99457.47
2022-09-13T18:12:24.424Z,99461.97
2022-09-13T18:14:51.614Z,99472.53
2022-09-13T18:17:18.381Z,99481.50
2022-09-13T18:19:46.665Z,99474.97
2022-09-13T18:22:15.539Z,99470.78
2022-09-13T18:24:42.402Z,99464.44
2022-09-13T18:27:09.344Z,99477.16
2022-09-13T18:29:36.674Z,99472.94
2022-09-13T18:32:03.482Z,99478.81
2022-09-13T18:34:30.323Z,99482.50
2022-09-13T18:36:57.824Z,99485.94
2022-09-13T18:39:25.039Z,99483.28
2022-09-13T18:41:51.819Z,99482.00
2022-09-13T18:44:19.317Z,99482.19
2022-09-13T18:46:47.681Z,99483.28
2022-09-13T18:49:17.204Z,99479.63
2022-09-13T18:51:45.154Z,99487.81
2022-09-13T18:54:13.276Z,99489.97
2022-09-13T18:56:41.400Z,99484.69
2022-09-13T18:59:11.036Z,99492.41
2022-09-13T19:01:39.300Z,99478.94
2022-09-13T19:04:08.794Z,99473.19
2022-09-13T19:06:40.158Z,99482.69
2022-09-13T19:09:08.213Z,99479.53
2022-09-13T19:11:51.760Z,99483.22
2022-09-13T19:14:23.020Z,99476.72
2022-09-13T19:16:50.903Z,99472.81
2022-09-13T19:19:18.118Z,99455.22
2022-09-13T19:21:45.523Z,99478.47
2022-09-13T19:24:18.076Z,99472.91
2022-09-13T19:26:46.468Z,99484.03
2022-09-13T19:29:14.807Z,99481.72
2022-09-13T19:31:43.695Z,99484.38
2022-09-13T19:34:11.324Z,99490.50
2022-09-13T19:36:39.360Z,99484.69
2022-09-13T19:39:07.066Z,99479.75
2022-09-13T19:41:34.663Z,99475.28
2022-09-13T19:44:02.079Z,99471.91
2022-09-13T19:46:31.799Z,99473.81
2022-09-13T19:49:00.919Z,99463.59
2022-09-13T19:51:29.197Z,99471.84
2022-09-13T19:53:57.825Z,99461.31
2022-09-13T19:56:26.771Z,99462.97
2022-09-13T19:58:53.862Z,99459.13
2022-09-13T20:01:22.786Z,99450.19
2022-09-13T20:03:51.530Z,99454.47
2022-09-13T20:06:18.568Z,99450.59
2022-09-13T20:08:45.381Z,99455.91
2022-09-13T20:11:14.309Z,99451.75
2022-09-13T20:13:41.130Z,99451.03
2022-09-13T20:16:18.579Z,99443.97
2022-09-13T20:18:46.031Z,99450.31
2022-09-13T20:21:13.147Z,99444.56
2022-09-13T20:23:40.908Z,99439.88
2022-09-13T20:26:21.807Z,99446.72
2022-09-13T20:28:49.980Z,99443.59
2022-09-13T20:31:17.143Z,99444.13
2022-09-13T20:33:43.924Z,99440.47
2022-09-13T20:36:12.211Z,99428.91
2022-09-13T20:38:39.829Z,99428.94
2022-09-13T20:41:08.151Z,99434.19
2022-09-13T20:43:36.168Z,99433.94
2022-09-13T20:46:04.034Z,99429.25
2022-09-13T20:48:31.621Z,99426.38
2022-09-13T20:50:59.846Z,99426.66
2022-09-13T20:53:27.593Z,99426.38
2022-09-13T20:55:54.416Z,99426.66
2022-09-13T20:58:22.161Z,99428.47
2022-09-13T21:00:49.417Z,99428.22
2022-09-13T21:03:16.373Z,99421.13
2022-09-13T21:05:43.233Z,99422.41
2022-09-13T21:08:33.367Z,99425.84
2022-09-13T21:11:03.406Z,99421.63
2022-09-13T21:13:31.001Z,99425.31
2022-09-13T21:16:01.969Z,99417.19
2022-09-13T21:18:29.445Z,99429.03
2022-09-13T21:20:59.992Z,99424.03
2022-09-13T21:23:27.351Z,99429.81
2022-09-13T21:25:54.088Z,99421.69
2022-09-13T21:28:21.225Z,99424.31
2022-09-13T21:30:58.522Z,99421.69
2022-09-13T21:33:26.093Z,99423.53
2022-09-13T21:35:55.796Z,99415.38
2022-09-13T21:38:22.635Z,99425.13
2022-09-13T21:41:00.636Z,99425.91
2022-09-13T21:43:28.207Z,99419.34
2022-09-13T21:46:03.436Z,99412.25
2022-09-13T21:48:32.838Z,99398.34
2022-09-13T21:51:07.739Z,99401.75
2022-09-13T21:53:35.695Z,99397.59
2022-09-13T21:56:03.990Z,99394.44
2022-09-13T21:58:30.875Z,99401.81
2022-09-13T22:01:02.548Z,99402.88
2022-09-13T22:03:29.904Z,99403.44
2022-09-13T22:05:57.960Z,99395.56
2022-09-13T22:08:24.953Z,99395.03
2022-09-13T22:10:52.049Z,99395.56
2022-09-13T22:13:19.965Z,99386.91
2022-09-13T22:15:48.177Z,99390.06
2022-09-13T22:18:15.429Z,99382.97
2022-09-13T22:20:42.284Z,99378.25
2022-09-13T22:23:09.020Z,99370.91
2022-09-13T22:25:40.094Z,99374.59
2022-09-13T22:28:06.849Z,99370.13
2022-09-13T22:30:34.587Z,99375.38
2022-09-13T22:33:01.720Z,99375.66
2022-09-13T22:35:28.480Z,99363.28
2022-09-13T22:37:55.243Z,99372.75
2022-09-13T22:40:22.441Z,99376.19
2022-09-13T22:42:49.346Z,99370.38
2022-09-13T22:45:16.333Z,99363.03
2022-09-13T22:47:43.407Z,99372.47
2022-09-13T22:50:10.213Z,99368.78
2022-09-13T22:52:36.990Z,99370.63
2022-09-13T22:55:05.065Z,99370.09
2022-09-13T22:57:32.120Z,99371.91
2022-09-13T22:59:58.960Z,99375.81
2022-09-13T23:02:26.180Z,99372.41
2022-09-13T23:04:52.958Z,99376.81
2022-09-13T23:07:19.713Z,99378.13
2022-09-13T23:09:46.850Z,99373.41
2022-09-13T23:12:13.716Z,99375.22
2022-09-13T23:14:40.501Z,99379.13
2022-09-13T23:17:07.598Z,99390.91
2022-09-13T23:19:34.413Z,99389.56
2022-09-13T23:22:01.268Z,99386.94
2022-09-13T23:24:28.372Z,99383.78
2022-09-13T23:26:56.081Z,99387.44
2022-09-13T23:29:23.349Z,99382.72
2022-09-13T23:31:51.307Z,99387.19
2022-09-13T23:34:18.137Z,99391.09
2022-09-13T23:36:46.092Z,99394.75
2022-09-13T23:39:16.595Z,99393.97
2022-09-13T23:41:45.422Z,99386.59
2022-09-13T23:44:12.347Z,99383.72
2022-09-13T23:46:39.633Z,99377.69
2022-09-13T23:49:06.426Z,99387.13
2022-09-13T23:51:33.496Z,99387.13
2022-09-13T23:54:01.223Z,99380.31
2022-09-13T23:56:29.112Z,99376.34
2022-09-13T23:58:57.241Z,99371.13
